createdAt,value
2022-09-01T00:00:03.284Z,99.90
2022-09-01T00:02:36.330Z,99.90
2022-09-01T00:05:07.648Z,99.90
2022-09-01T00:07:36.815Z,99.90
2022-09-01T00:10:09.496Z,99.90
2022-09-01T00:12:39.854Z,99.90
2022-09-01T00:15:10.998Z,99.90
2022-09-01T00:17:39.753Z,99.90
2022-09-01T00:20:10.034Z,99.90
2022-09-01T00:22:38.486Z,99.90
2022-09-01T00:25:08.702Z,99.90
2022-09-01T00:27:37.160Z,99.90
2022-09-01T00:30:08.099Z,99.90
2022-09-01T00:32:36.694Z,99.90
2022-09-01T00:35:06.082Z,99.90
2022-09-01T00:37:34.500Z,99.90
2022-09-01T00:40:03.144Z,99.90
2022-09-01T00:42:31.561Z,99.90
2022-09-01T00:45:00.027Z,99.90
2022-09-01T00:47:30.541Z,99.90
2022-09-01T00:49:59.475Z,99.90
2022-09-01T00:52:33.281Z,99.90
2022-09-01T00:55:08.713Z,99.90
2022-09-01T00:57:37.470Z,99.90
2022-09-01T01:00:12.715Z,99.90
2022-09-01T01:02:45.050Z,99.90
2022-09-01T01:05:15.575Z,99.90
2022-09-01T01:07:47.764Z,99.90
2022-09-01T01:10:19.875Z,99.90
2022-09-01T01:12:51.874Z,99.90
2022-09-01T01:15:21.131Z,99.90
2022-09-01T01:17:50.864Z,99.90
2022-09-01T01:20:40.540Z,99.90
2022-09-01T01:23:17.310Z,99.90
2022-09-01T01:25:50.669Z,99.90
2022-09-01T01:28:22.161Z,99.90
2022-09-01T01:30:53.894Z,99.90
2022-09-01T01:33:24.537Z,99.90
2022-09-01T01:35:53.927Z,99.90
2022-09-01T01:38:23.045Z,99.90
2022-09-01T01:40:55.831Z,99.90
2022-09-01T01:43:24.517Z,99.90
2022-09-01T01:45:55.310Z,99.90
2022-09-01T01:48:24.640Z,99.90
2022-09-01T01:50:55.009Z,99.90
2022-09-01T01:53:24.024Z,99.90
2022-09-01T01:55:53.842Z,99.90
2022-09-01T01:58:24.630Z,99.90
2022-09-01T02:00:55.316Z,99.90
2022-09-01T02:03:25.566Z,99.90
2022-09-01T02:05:55.166Z,99.90
2022-09-01T02:08:26.159Z,99.90
2022-09-01T02:10:57.938Z,99.90
2022-09-01T02:13:28.586Z,99.90
2022-09-01T02:15:58.838Z,99.90
2022-09-01T02:18:31.300Z,99.90
2022-09-01T02:21:01.038Z,99.90
2022-09-01T02:23:30.015Z,99.90
2022-09-01T02:26:16.235Z,99.90
2022-09-01T02:28:54.381Z,99.90
2022-09-01T02:31:24.461Z,99.90
2022-09-01T02:33:54.675Z,99.90
2022-09-01T02:36:25.345Z,99.90
2022-09-01T02:38:56.843Z,99.90
2022-09-01T02:41:29.172Z,99.90
2022-09-01T02:44:02.292Z,99.90
2022-09-01T02:46:31.243Z,99.90
2022-09-01T02:49:00.565Z,99.90
2022-09-01T02:51:29.388Z,99.90
2022-09-01T02:53:57.979Z,99.90
2022-09-01T02:56:28.037Z,99.90
2022-09-01T02:58:56.625Z,99.90
2022-09-01T03:01:27.298Z,99.90
2022-09-01T03:03:58.741Z,99.90
2022-09-01T03:06:28.232Z,99.90
2022-09-01T03:09:00.249Z,99.90
2022-09-01T03:11:32.725Z,99.90
2022-09-01T03:14:01.889Z,99.90
2022-09-01T03:16:31.487Z,99.90
2022-09-01T03:19:00.130Z,99.90
2022-09-01T03:21:29.588Z,99.90
2022-09-01T03:23:58.206Z,99.90
2022-09-01T03:26:26.993Z,99.90
2022-09-01T03:28:57.346Z,99.90
2022-09-01T03:31:30.796Z,99.90
2022-09-01T03:34:00.979Z,99.90
2022-09-01T03:36:31.428Z,99.90
2022-09-01T03:39:00.141Z,99.90
2022-09-01T03:41:31.069Z,99.90
2022-09-01T03:44:01.568Z,99.90
2022-09-01T03:46:36.378Z,99.90
2022-09-01T03:49:08.585Z,99.90
2022-09-01T03:51:38.084Z,99.90
2022-09-01T03:54:06.495Z,99.90
2022-09-01T03:56:35.135Z,99.90
2022-09-01T03:59:05.207Z,99.90
2022-09-01T04:01:41.599Z,99.90
2022-09-01T04:04:13.767Z,99.90
2022-09-01T04:06:42.943Z,99.90
2022-09-01T04:09:12.210Z,99.90
2022-09-01T04:11:45.713Z,99.90
2022-09-01T04:14:16.351Z,99.90
2022-09-01T04:17:02.976Z,99.90
2022-09-01T04:19:36.888Z,99.90
2022-09-01T04:22:07.919Z,99.90
2022-09-01T04:24:36.567Z,99.90
2022-09-01T04:27:07.679Z,99.90
2022-09-01T04:29:38.508Z,99.90
2022-09-01T04:32:12.965Z,99.90
2022-09-01T04:34:42.213Z,99.90
2022-09-01T04:37:13.047Z,99.90
2022-09-01T04:39:51.247Z,99.90
2022-09-01T04:42:24.198Z,99.90
2022-09-01T04:44:54.796Z,99.90
2022-09-01T04:47:35.704Z,99.90
2022-09-01T04:50:14.017Z,99.90
2022-09-01T04:52:43.174Z,99.90
2022-09-01T04:55:17.816Z,99.90
2022-09-01T04:57:49.494Z,99.90
2022-09-01T05:00:24.273Z,99.90
2022-09-01T05:02:55.157Z,99.90
2022-09-01T05:05:24.786Z,99.90
2022-09-01T05:07:55.626Z,99.90
2022-09-01T05:10:30.028Z,99.90
2022-09-01T05:12:58.573Z,99.90
2022-09-01T05:15:31.001Z,99.90
2022-09-01T05:18:02.354Z,99.90
2022-09-01T05:20:32.046Z,99.90
2022-09-01T05:23:00.698Z,99.90
2022-09-01T05:25:29.217Z,99.90
2022-09-01T05:27:58.073Z,99.90
2022-09-01T05:30:28.673Z,99.90
2022-09-01T05:32:58.366Z,99.90
2022-09-01T05:35:32.786Z,99.90
2022-09-01T05:38:02.563Z,99.90
2022-09-01T05:40:32.470Z,99.90
2022-09-01T05:43:01.446Z,99.90
2022-09-01T05:45:44.736Z,99.90
2022-09-01T05:48:23.728Z,99.90
2022-09-01T05:50:56.280Z,99.90
2022-09-01T05:53:25.383Z,99.90
2022-09-01T05:55:57.680Z,99.90
2022-09-01T05:59:22.484Z,99.90
2022-09-01T06:01:22.297Z,99.90
2022-09-01T06:03:54.867Z,99.90
2022-09-01T06:06:24.851Z,99.40
2022-09-01T06:08:55.555Z,98.50
2022-09-01T06:11:24.945Z,97.70
2022-09-01T06:13:57.013Z,97.00
2022-09-01T06:16:26.395Z,96.30
2022-09-01T06:18:57.396Z,95.80
2022-09-01T06:21:25.805Z,95.10
2022-09-01T06:23:54.466Z,94.40
2022-09-01T06:26:27.183Z,93.70
2022-09-01T06:28:55.993Z,93.10
2022-09-01T06:31:25.630Z,92.80
2022-09-01T06:33:58.137Z,92.20
2022-09-01T06:36:26.735Z,91.70
2022-09-01T06:38:55.630Z,91.20
2022-09-01T06:41:24.544Z,90.60
2022-09-01T06:43:54.100Z,90.10
2022-09-01T06:46:23.711Z,89.70
2022-09-01T06:48:53.872Z,88.80
2022-09-01T06:51:25.119Z,87.70
2022-09-01T06:53:56.819Z,86.30
2022-09-01T06:56:29.162Z,85.20
2022-09-01T06:59:04.125Z,84.20
2022-09-01T07:01:34.265Z,84.60
2022-09-01T07:04:03.320Z,84.80
2022-09-01T07:09:48.091Z,84.60
2022-09-01T07:17:52.465Z,89.80
2022-09-01T07:20:24.486Z,90.30
2022-09-01T07:23:05.575Z,90.60
2022-09-01T07:26:01.591Z,90.80
2022-09-01T07:28:36.149Z,91.10
2022-09-01T07:42:31.700Z,91.80
2022-09-01T07:45:29.591Z,91.60
2022-09-01T07:48:00.265Z,91.30
2022-09-01T07:53:22.527Z,91.00
2022-09-01T07:55:55.453Z,90.70
2022-09-01T07:58:26.476Z,90.60
2022-09-01T08:00:55.568Z,90.80
2022-09-01T08:03:26.372Z,91.00
2022-09-01T08:05:57.876Z,91.00
2022-09-01T08:08:29.212Z,90.80
2022-09-01T08:11:06.843Z,90.60
2022-09-01T08:13:41.204Z,90.70
2022-09-01T08:16:18.948Z,90.50
2022-09-01T08:18:49.481Z,90.20
2022-09-01T08:21:22.110Z,89.90
2022-09-01T08:23:51.714Z,89.50
2022-09-01T08:26:24.929Z,89.30
2022-09-01T08:28:55.693Z,89.00
2022-09-01T08:31:30.604Z,89.00
2022-09-01T08:34:00.232Z,89.00
2022-09-01T08:36:29.064Z,89.60
2022-09-01T08:38:57.410Z,89.30
2022-09-01T08:41:46.863Z,88.80
2022-09-01T08:44:28.823Z,87.90
2022-09-01T08:47:02.358Z,85.50
2022-09-01T08:49:42.755Z,83.30
2022-09-01T08:52:19.887Z,82.10
2022-09-01T08:54:51.726Z,81.70
2022-09-01T08:57:24.587Z,81.20
2022-09-01T08:59:54.841Z,81.00
2022-09-01T09:02:34.313Z,80.90
2022-09-01T09:05:16.089Z,81.00
2022-09-01T09:08:06.421Z,80.50
2022-09-01T09:10:47.926Z,80.50
2022-09-01T09:13:24.146Z,80.40
2022-09-01T09:16:13.220Z,80.10
2022-09-01T09:19:00.843Z,79.90
2022-09-01T09:21:34.759Z,79.70
2022-09-01T09:24:22.571Z,79.10
2022-09-01T09:26:51.922Z,78.30
2022-09-01T09:29:23.164Z,77.90
2022-09-01T09:32:03.991Z,77.90
2022-09-01T09:34:35.207Z,77.10
2022-09-01T09:37:22.175Z,76.90
2022-09-01T09:40:08.399Z,75.70
2022-09-01T09:42:39.973Z,74.30
2022-09-01T09:45:22.603Z,73.90
2022-09-01T09:47:51.718Z,73.40
2022-09-01T09:50:24.410Z,73.90
2022-09-01T09:52:55.842Z,73.80
2022-09-01T09:55:27.985Z,73.70
2022-09-01T09:58:00.761Z,73.50
2022-09-01T10:00:34.262Z,73.40
2022-09-01T10:03:10.128Z,73.20
2022-09-01T10:05:43.226Z,73.70
2022-09-01T10:08:16.586Z,74.40
2022-09-01T10:10:58.402Z,74.40
2022-09-01T10:13:32.573Z,74.20
2022-09-01T10:16:07.923Z,74.10
2022-09-01T10:18:41.115Z,74.00
2022-09-01T10:21:15.150Z,74.20
2022-09-01T10:23:44.971Z,73.70
2022-09-01T10:26:18.931Z,73.30
2022-09-01T10:28:53.958Z,72.70
2022-09-01T10:31:32.190Z,72.50
2022-09-01T10:34:05.455Z,72.90
2022-09-01T10:36:36.692Z,72.80
2022-09-01T10:39:11.398Z,72.60
2022-09-01T10:42:00.466Z,72.50
2022-09-01T10:44:34.381Z,72.70
2022-09-01T10:47:14.652Z,72.30
2022-09-01T10:50:07.515Z,72.20
2022-09-01T10:53:06.522Z,72.70
2022-09-01T10:55:46.299Z,73.50
2022-09-01T11:02:28.805Z,73.00
2022-09-01T11:05:16.710Z,72.70
2022-09-01T11:08:09.175Z,72.60
2022-09-01T11:10:44.591Z,72.90
2022-09-01T11:13:30.726Z,73.10
2022-09-01T11:19:32.921Z,73.70
2022-09-01T11:22:13.089Z,73.30
2022-09-01T11:25:12.554Z,73.40
2022-09-01T11:28:00.565Z,73.40
2022-09-01T11:30:51.925Z,73.30
2022-09-01T11:33:53.795Z,73.20
2022-09-01T11:36:29.831Z,73.10
2022-09-01T11:39:05.702Z,73.20
2022-09-01T11:41:44.608Z,73.50
2022-09-01T11:44:25.503Z,73.80
2022-09-01T11:47:01.474Z,74.10
2022-09-01T11:49:32.595Z,74.40
2022-09-01T11:52:03.567Z,74.90
2022-09-01T11:54:39.542Z,75.30
2022-09-01T11:57:24.399Z,74.80
2022-09-01T11:59:54.050Z,74.80
2022-09-01T12:02:25.559Z,74.80
2022-09-01T12:04:55.371Z,75.20
2022-09-01T12:07:40.996Z,75.60
2022-09-01T12:10:20.144Z,75.90
2022-09-01T12:12:49.278Z,76.40
2022-09-01T12:15:23.786Z,76.60
2022-09-01T12:17:53.294Z,76.60
2022-09-01T12:20:31.039Z,76.40
2022-09-01T12:23:02.683Z,76.30
2022-09-01T12:25:33.543Z,76.00
2022-09-01T12:28:03.275Z,75.90
2022-09-01T12:30:35.362Z,76.10
2022-09-01T12:33:23.471Z,76.00
2022-09-01T12:35:56.097Z,75.60
2022-09-01T12:38:31.376Z,75.40
2022-09-01T12:41:00.140Z,75.00
2022-09-01T12:43:34.697Z,74.40
2022-09-01T12:46:04.725Z,73.90
2022-09-01T12:48:35.664Z,73.60
2022-09-01T12:51:09.368Z,73.50
2022-09-01T12:53:39.795Z,73.60
2022-09-01T12:56:20.154Z,73.60
2022-09-01T12:58:52.231Z,72.90
2022-09-01T13:01:30.587Z,72.50
2022-09-01T13:04:13.454Z,72.10
2022-09-01T13:06:42.323Z,71.90
2022-09-01T13:09:12.203Z,72.10
2022-09-01T13:14:31.210Z,72.60
2022-09-01T13:16:59.970Z,72.90
2022-09-01T13:19:30.508Z,73.40
2022-09-01T13:21:59.324Z,73.40
2022-09-01T13:24:31.625Z,73.70
2022-09-01T13:29:49.621Z,73.90
2022-09-01T13:32:21.636Z,74.00
2022-09-01T13:34:52.365Z,74.30
2022-09-01T13:37:22.379Z,74.40
2022-09-01T13:39:52.355Z,74.20
2022-09-01T13:42:20.957Z,74.50
2022-09-01T13:44:52.532Z,74.60
2022-09-01T13:47:31.804Z,75.50
2022-09-01T13:50:11.114Z,76.60
2022-09-01T13:52:42.152Z,77.70
2022-09-01T13:55:15.444Z,78.50
2022-09-01T13:57:44.086Z,78.60
2022-09-01T14:00:17.276Z,78.80
2022-09-01T14:02:50.320Z,79.10
2022-09-01T14:05:20.350Z,79.00
2022-09-01T14:07:49.495Z,79.20
2022-09-01T14:10:20.050Z,79.30
2022-09-01T14:12:49.271Z,79.20
2022-09-01T14:15:23.712Z,79.10
2022-09-01T14:17:57.264Z,78.40
2022-09-01T14:20:35.125Z,78.20
2022-09-01T14:23:07.033Z,77.90
2022-09-01T14:25:37.860Z,77.70
2022-09-01T14:28:06.408Z,77.60
2022-09-01T14:30:35.426Z,77.20
2022-09-01T14:33:04.156Z,76.60
2022-09-01T14:35:33.264Z,75.80
2022-09-01T14:38:02.965Z,75.00
2022-09-01T14:40:31.396Z,73.40
2022-09-01T14:43:01.211Z,72.10
2022-09-01T14:45:29.836Z,71.70
2022-09-01T14:48:01.453Z,71.20
2022-09-01T14:50:32.764Z,70.30
2022-09-01T14:53:03.768Z,70.00
2022-09-01T14:55:32.963Z,69.90
2022-09-01T14:58:03.263Z,70.00
2022-09-01T15:00:35.188Z,70.10
2022-09-01T15:03:04.517Z,69.70
2022-09-01T15:05:38.335Z,69.70
2022-09-01T15:08:14.233Z,70.20
2022-09-01T15:10:45.788Z,71.30
2022-09-01T15:13:15.763Z,72.10
2022-09-01T15:15:44.330Z,72.70
2022-09-01T15:18:12.751Z,73.50
2022-09-01T15:20:50.986Z,74.20
2022-09-01T15:23:21.142Z,74.50
2022-09-01T15:25:52.089Z,74.90
2022-09-01T15:28:22.743Z,75.50
2022-09-01T15:30:51.789Z,76.00
2022-09-01T15:33:22.886Z,76.20
2022-09-01T15:35:51.431Z,76.70
2022-09-01T15:38:24.990Z,77.20
2022-09-01T15:40:58.216Z,77.60
2022-09-01T15:43:29.715Z,78.00
2022-09-01T15:45:59.578Z,78.30
2022-09-01T15:48:28.845Z,78.50
2022-09-01T15:51:24.082Z,78.80
2022-09-01T15:53:54.610Z,79.20
2022-09-01T15:56:23.017Z,79.30
2022-09-01T15:59:00.740Z,79.60
2022-09-01T16:01:32.445Z,80.10
2022-09-01T16:04:02.243Z,81.30
2022-09-01T16:06:31.170Z,80.90
2022-09-01T16:08:59.851Z,81.20
2022-09-01T16:11:28.900Z,81.50
2022-09-01T16:13:59.565Z,81.70
2022-09-01T16:16:45.282Z,82.20
2022-09-01T16:19:29.739Z,82.30
2022-09-01T16:22:06.949Z,82.50
2022-09-01T16:24:42.434Z,82.90
2022-09-01T16:27:15.295Z,83.20
2022-09-01T16:29:49.711Z,83.40
2022-09-01T16:32:21.245Z,84.60
2022-09-01T16:34:50.510Z,83.80
2022-09-01T16:37:28.634Z,84.10
2022-09-01T16:40:09.342Z,84.30
2022-09-01T16:42:48.687Z,84.50
2022-09-01T16:45:31.455Z,84.60
2022-09-01T16:48:10.148Z,84.80
2022-09-01T16:50:46.290Z,85.00
2022-09-01T16:53:31.909Z,85.30
2022-09-01T16:56:07.472Z,85.60
2022-09-01T16:58:47.311Z,85.80
2022-09-01T17:01:35.959Z,85.90
2022-09-01T17:04:15.493Z,86.20
2022-09-01T17:06:57.170Z,86.50
2022-09-01T17:09:32.503Z,86.90
2022-09-01T17:12:27.732Z,87.20
2022-09-01T17:14:59.606Z,87.60
2022-09-01T17:17:38.921Z,87.80
2022-09-01T17:20:08.631Z,88.30
2022-09-01T17:22:38.740Z,88.70
2022-09-01T17:25:10.129Z,89.20
2022-09-01T17:27:51.172Z,89.60
2022-09-01T17:30:20.067Z,89.90
2022-09-01T17:33:12.138Z,90.10
2022-09-01T17:35:59.565Z,90.30
2022-09-01T17:38:39.686Z,90.50
2022-09-01T17:41:19.535Z,90.70
2022-09-01T17:43:59.642Z,90.90
2022-09-01T17:46:35.310Z,91.00
2022-09-01T17:49:17.017Z,91.20
2022-09-01T17:51:52.424Z,91.40
2022-09-01T17:54:29.546Z,91.50
2022-09-01T17:57:05.013Z,91.70
2022-09-01T17:59:46.022Z,91.90
2022-09-01T18:02:28.890Z,92.00
2022-09-01T18:05:10.196Z,92.20
2022-09-01T18:08:07.250Z,92.40
2022-09-01T18:10:41.032Z,92.60
2022-09-01T18:13:30.497Z,92.80
2022-09-01T18:16:07.927Z,92.90
2022-09-01T18:18:38.346Z,93.00
2022-09-01T18:21:12.460Z,93.20
2022-09-01T18:23:42.955Z,93.40
2022-09-01T18:26:20.081Z,93.40
2022-09-01T18:28:51.767Z,93.60
2022-09-01T18:31:46.963Z,93.70
2022-09-01T18:34:25.457Z,93.90
2022-09-01T18:37:01.087Z,94.10
2022-09-01T18:39:51.885Z,94.10
2022-09-01T18:42:31.891Z,94.20
2022-09-01T18:45:10.688Z,94.30
2022-09-01T18:47:50.842Z,94.40
2022-09-01T18:50:24.387Z,94.60
2022-09-01T18:53:06.612Z,94.70
2022-09-01T18:55:44.312Z,94.80
2022-09-01T18:58:27.539Z,94.90
2022-09-01T19:01:03.727Z,94.90
2022-09-01T19:03:36.067Z,95.10
2022-09-01T19:06:20.472Z,95.10
2022-09-01T19:08:58.645Z,95.30
2022-09-01T19:11:40.262Z,95.30
2022-09-01T19:14:17.145Z,95.40
2022-09-01T19:17:05.995Z,95.50
2022-09-01T19:19:44.182Z,95.40
2022-09-01T19:22:18.293Z,95.50
2022-09-01T19:24:54.589Z,95.40
2022-09-01T19:27:29.389Z,95.50
2022-09-01T19:30:04.065Z,95.50
2022-09-01T19:32:36.098Z,95.50
2022-09-01T19:35:11.151Z,95.60
2022-09-01T19:37:40.596Z,95.70
2022-09-01T19:40:11.602Z,95.70
2022-09-01T19:42:49.241Z,95.80
2022-09-01T19:45:23.066Z,95.80
2022-09-01T19:47:58.052Z,95.90
2022-09-01T19:50:32.091Z,96.10
2022-09-01T19:53:08.381Z,96.20
2022-09-01T19:55:50.391Z,96.30
2022-09-01T19:58:22.853Z,96.40
2022-09-01T20:00:55.813Z,96.60
2022-09-01T20:03:28.083Z,96.80
2022-09-01T20:06:01.615Z,96.80
2022-09-01T20:08:36.441Z,97.00
2022-09-01T20:11:14.726Z,97.10
2022-09-01T20:14:17.517Z,97.20
2022-09-01T20:16:50.673Z,97.20
2022-09-01T20:19:28.800Z,97.40
2022-09-01T20:22:10.079Z,97.50
2022-09-01T20:24:40.249Z,97.60
2022-09-01T20:27:26.839Z,97.80
2022-09-01T20:30:01.657Z,97.90
2022-09-01T20:32:38.016Z,98.00
2022-09-01T20:35:13.593Z,98.20
2022-09-01T20:37:46.630Z,98.30
2022-09-01T20:40:17.978Z,98.50
2022-09-01T20:42:55.974Z,98.60
2022-09-01T20:45:27.141Z,98.70
2022-09-01T20:47:58.031Z,98.80
2022-09-01T20:50:33.567Z,99.00
2022-09-01T20:53:14.176Z,99.20
2022-09-01T20:55:50.394Z,99.30
2022-09-01T20:58:32.612Z,99.50
2022-09-01T21:01:17.453Z,99.70
2022-09-01T21:04:05.906Z,99.80
2022-09-01T21:06:49.774Z,99.90
2022-09-01T21:09:29.324Z,99.90
2022-09-01T21:12:07.259Z,99.90
2022-09-01T21:14:49.236Z,99.90
2022-09-01T21:17:23.593Z,99.90
2022-09-01T21:20:03.844Z,99.90
2022-09-01T21:22:32.313Z,99.90
2022-09-01T21:25:01.023Z,99.90
2022-09-01T21:27:36.978Z,99.90
2022-09-01T21:30:09.367Z,99.90
2022-09-01T21:32:39.715Z,99.90
2022-09-01T21:35:10.940Z,99.90
2022-09-01T21:37:39.475Z,99.90
2022-09-01T21:40:09.480Z,99.90
2022-09-01T21:42:42.282Z,99.90
2022-09-01T21:45:16.171Z,99.90
2022-09-01T21:47:47.581Z,99.90
2022-09-01T21:50:18.481Z,99.90
2022-09-01T21:52:47.155Z,99.90
2022-09-01T21:55:22.078Z,99.90
2022-09-01T21:57:52.059Z,99.90
2022-09-01T22:00:23.877Z,99.90
2022-09-01T22:02:52.840Z,99.90
2022-09-01T22:05:22.005Z,99.90
2022-09-01T22:07:50.781Z,99.90
2022-09-01T22:10:22.029Z,99.90
2022-09-01T22:12:51.458Z,99.90
2022-09-01T22:15:23.818Z,99.90
2022-09-01T22:17:53.316Z,99.90
2022-09-01T22:20:23.937Z,99.90
2022-09-01T22:22:54.717Z,99.90
2022-09-01T22:25:24.873Z,99.90
2022-09-01T22:27:53.293Z,99.90
2022-09-01T22:30:23.143Z,99.90
2022-09-01T22:32:51.638Z,99.90
2022-09-01T22:35:19.943Z,99.90
2022-09-01T22:37:49.090Z,99.90
2022-09-01T22:40:19.316Z,99.90
2022-09-01T22:42:48.064Z,99.90
2022-09-01T22:45:16.721Z,99.90
2022-09-01T22:47:46.857Z,99.90
2022-09-01T22:50:15.289Z,99.90
2022-09-01T22:52:43.723Z,99.90
2022-09-01T22:55:13.697Z,99.90
2022-09-01T22:57:42.222Z,99.90
2022-09-01T23:00:13.276Z,99.90
2022-09-01T23:02:41.951Z,99.90
2022-09-01T23:05:12.092Z,99.90
2022-09-01T23:07:40.924Z,99.90
2022-09-01T23:10:10.660Z,99.90
2022-09-01T23:12:39.094Z,99.90
2022-09-01T23:15:09.261Z,99.90
2022-09-01T23:17:38.257Z,99.90
2022-09-01T23:20:08.855Z,99.90
2022-09-01T23:22:38.952Z,99.90
2022-09-01T23:25:08.732Z,99.90
2022-09-01T23:27:37.356Z,99.90
2022-09-01T23:30:06.807Z,99.90
2022-09-01T23:32:35.631Z,99.90
2022-09-01T23:35:05.135Z,99.90
2022-09-01T23:37:33.758Z,99.90
2022-09-01T23:40:04.347Z,99.90
2022-09-01T23:42:32.690Z,99.90
2022-09-01T23:45:01.041Z,99.90
2022-09-01T23:47:31.116Z,99.90
2022-09-01T23:49:59.786Z,99.90
2022-09-01T23:52:28.149Z,99.90
2022-09-01T23:54:56.753Z,99.90
2022-09-01T23:57:26.603Z,99.90
2022-09-01T23:59:57.264Z,99.90
